Latest Weather Observations for Port Fairy

IDV60801

Issued at 2:02 pm EST Thursday 28 May 2015 (issued every 30 minutes, with the page automatically refreshed every 10 minutes)

About weather observations | Map of weather stations | Latest weather observations for VIC | Other Formats
Station Details ID: 090175 Name: PORT FAIRY AWS Lat: -38.39 Lon: 142.23 Height: 10.0 m
Data from the previous 72 hours. | See also: Recent months at Port Fairy
Date/Time
EST
Temp
°C
App
Temp
°C
Dew
Point
Rel
Hum
%
Delta-T
°C
Wind Press
QNH
hPa
Press
MSL
hPa
Rain
since 9 am
mm
Dir
 
Spd
km/h
Gust
km/h
Spd
kts
Gust
kts
28/02:00pm 15.1 11.9 11.1 77 2.1 NW 19 30 10 16 1012.0 1012.0 0.0
28/01:30pm 16.2 12.6 10.5 69 3.0 NW 20 41 11 22 1011.9 1011.9 0.0
28/01:00pm 17.3 13.5 9.7 61 4.0 NW 20 44 11 24 1012.0 1012.0 0.0
28/12:30pm 17.8 13.6 9.9 60 4.2 NW 22 35 12 19 1012.2 1012.2 0.0
28/12:00pm 17.7 14.0 11.5 67 3.4 NW 22 39 12 21 1012.7 1012.7 0.0
28/11:45am 16.8 11.7 10.6 67 3.3 NNW 28 50 15 27 1012.8 1012.8 0.0
28/11:30am 17.0 12.7 10.8 67 3.3 NW 24 43 13 23 1013.0 1013.0 0.0
28/11:09am 16.8 11.9 11.3 70 3.0 NNW 28 50 15 27 1013.2 1013.2 0.0
28/11:00am 16.7 11.4 11.4 71 2.9 NNW 30 46 16 25 1013.4 1013.4 0.0
28/10:40am 16.4 11.7 12.0 75 2.4 NNW 28 48 15 26 1013.5 1013.5 0.0
28/10:30am 16.3 12.8 12.3 77 2.2 NNW 22 41 12 22 1013.7 1013.7 0.0
28/10:00am 15.6 11.0 11.2 75 2.4 NNW 26 43 14 23 1013.8 1013.8 0.0
28/09:30am 14.8 11.8 11.9 83 1.6 NNW 19 32 10 17 1014.0 1014.0 0.0
28/09:00am 13.9 10.5 11.4 85 1.3 NNW 20 39 11 21 1014.0 1014.0 5.4
28/08:30am 13.4 10.5 11.1 86 1.2 NNW 17 30 9 16 1014.1 1014.1 5.4
28/08:00am 13.4 10.5 11.1 86 1.2 NNW 17 28 9 15 1014.2 1014.2 5.4
28/07:30am 13.4 10.6 11.3 87 1.1 NNW 17 28 9 15 1014.2 1014.2 5.4
28/07:00am 13.2 10.7 11.1 87 1.1 NNW 15 28 8 15 1014.3 1014.3 5.4
28/06:30am 13.2 10.0 11.4 89 1.0 NNW 19 35 10 19 1014.1 1014.1 5.4
28/06:00am 12.9 10.1 11.3 90 0.8 NNW 17 22 9 12 1013.7 1013.7 5.4
28/05:30am 12.6 10.5 11.3 92 0.7 NNW 13 22 7 12 1014.1 1014.1 5.4
28/05:00am 12.1 10.4 11.2 94 0.5 N 11 15 6 8 1014.0 1014.0 5.4
28/04:30am 11.9 10.2 11.1 95 0.4 N 11 17 6 9 1014.4 1014.4 5.4
28/04:00am 12.1 10.8 11.3 95 0.4 NNW 9 15 5 8 1014.6 1014.6 5.4
28/03:30am 12.6 11.1 11.8 95 0.4 N 11 17 6 9 1014.6 1014.6 5.4
28/03:00am 13.2 11.9 12.6 96 0.3 NNW 11 20 6 11 1014.8 1014.8 5.2
28/02:30am 13.4 12.2 12.8 96 0.3 NNW 11 17 6 9 1015.3 1015.3 4.6
28/02:00am 13.4 11.8 12.8 96 0.3 NNW 13 24 7 13 1015.4 1015.4 4.0
28/01:30am 13.6 12.0 12.7 94 0.5 NW 13 19 7 10 1015.6 1015.6 2.0
28/01:00am 13.9 11.4 12.3 90 0.9 NNW 17 26 9 14 1015.6 1015.6 0.2
28/12:30am 13.9 12.0 11.8 87 1.1 NNW 13 24 7 13 1015.7 1015.7 0.0
28/12:00am 13.7 12.1 11.4 86 1.2 NNW 11 19 6 10 1015.8 1015.8 0.0
 
Date/Time
EST
Temp
°C
App
Temp
°C
Dew
Point
Rel
Hum
%
Delta-T
°C
Wind Press
QNH
hPa
Press
MSL
hPa
Rain
since 9 am
mm
Dir
 
Spd
km/h
Gust
km/h
Spd
kts
Gust
kts
27/11:30pm 13.9 11.5 11.4 85 1.3 N 15 24 8 13 1015.8 1015.8 0.0
27/11:00pm 14.2 12.3 11.7 85 1.3 NNW 13 24 7 13 1016.0 1016.0 0.0
27/10:30pm 14.3 12.0 11.8 85 1.3 NNW 15 20 8 11 1016.2 1016.2 0.0
27/10:00pm 14.3 12.0 11.8 85 1.3 NNW 15 28 8 15 1016.3 1016.3 0.0
27/09:30pm 14.0 12.4 11.5 85 1.3 NNW 11 17 6 9 1016.3 1016.3 0.0
27/09:00pm 13.7 12.0 11.2 85 1.3 NNW 11 17 6 9 1016.4 1016.4 0.0
27/08:30pm 13.9 11.9 11.4 85 1.3 NNW 13 20 7 11 1016.4 1016.4 0.0
27/08:00pm 13.7 11.9 11.0 84 1.4 NNW 11 17 6 9 1016.1 1016.1 0.0
27/07:30pm 13.9 12.9 11.1 83 1.5 NNW 7 13 4 7 1016.1 1016.1 0.0
27/07:00pm 14.5 12.7 10.9 79 1.9 NW 11 17 6 9 1016.2 1016.2 0.0
27/06:30pm 14.6 13.7 11.4 81 1.7 NNW 7 11 4 6 1016.0 1016.0 0.0
27/06:00pm 14.8 13.8 11.0 78 2.0 NW 7 9 4 5 1015.9 1015.9 0.0
27/05:30pm 15.9 13.8 11.3 74 2.5 NNW 13 20 7 11 1015.6 1015.6 0.0
27/05:00pm 16.8 13.9 11.1 69 3.1 NNW 17 28 9 15 1015.6 1015.6 0.0
27/04:30pm 17.0 14.5 11.1 68 3.2 NNW 15 24 8 13 1015.4 1015.4 0.0
27/04:00pm 17.3 14.8 11.1 67 3.3 NNW 15 26 8 14 1015.6 1015.6 0.0
27/03:30pm 17.7 14.4 11.0 65 3.6 NNW 19 32 10 17 1015.4 1015.4 0.0
27/03:00pm 17.8 13.9 10.9 64 3.7 NNW 22 35 12 19 1015.3 1015.3 0.0
27/02:30pm 18.5 15.1 11.3 63 3.9 NNW 20 32 11 17 1015.5 1015.5 0.0
27/02:00pm 18.3 14.8 10.9 62 4.0 NW 20 35 11 19 1015.8 1015.8 0.0
27/01:30pm 18.1 14.6 11.0 63 3.8 NW 20 32 11 17 1016.1 1016.1 0.0
27/01:00pm 17.8 14.6 11.1 65 3.6 NW 19 32 10 17 1016.4 1016.4 0.0
27/12:30pm 17.9 15.2 11.7 67 3.4 NW 17 28 9 15 1016.8 1016.8 0.0
27/12:00pm 17.9 14.6 11.0 64 3.7 NNW 19 30 10 16 1017.3 1017.3 0.0
27/11:30am 17.0 13.6 10.4 65 3.5 NNW 19 30 10 16 1017.5 1017.5 0.0
27/11:00am 16.5 13.4 10.4 67 3.2 NNW 17 28 9 15 1017.8 1017.8 0.0
27/10:30am 16.3 13.3 10.6 69 3.0 NNW 17 26 9 14 1018.0 1018.0 0.0
27/10:00am 15.5 12.0 10.1 70 2.8 NNW 19 32 10 17 1018.0 1018.0 0.0
27/09:30am 14.5 12.5 10.3 76 2.2 N 11 19 6 10 1018.0 1018.0 0.0
27/09:00am 12.5 9.9 9.3 81 1.6 N 13 20 7 11 1017.9 1017.9 0.2
27/08:30am 11.5 8.7 8.7 83 1.4 N 13 20 7 11 1017.8 1017.8 0.2
27/08:00am 11.1 8.3 8.5 84 1.3 N 13 17 7 9 1017.7 1017.7 0.2
27/07:30am 11.2 8.4 8.6 84 1.3 N 13 17 7 9 1017.4 1017.4 0.2
27/07:00am 11.1 8.7 8.5 84 1.3 N 11 15 6 8 1017.2 1017.2 0.2
27/06:30am 10.8 7.9 8.2 84 1.3 N 13 19 7 10 1017.2 1017.2 0.2
27/06:00am 10.6 7.8 8.4 86 1.1 N 13 15 7 8 1017.2 1017.2 0.2
27/05:30am 11.0 8.2 8.6 85 1.2 N 13 19 7 10 1017.3 1017.3 0.2
27/05:00am 11.7 9.4 9.1 84 1.3 N 11 19 6 10 1017.4 1017.4 0.2
27/04:30am 12.2 10.4 9.6 84 1.3 N 9 13 5 7 1017.7 1017.7 0.2
27/04:00am 12.3 10.6 9.9 85 1.2 N 9 11 5 6 1017.9 1017.9 0.2
27/03:30am 12.3 10.5 9.5 83 1.4 N 9 11 5 6 1018.2 1018.2 0.2
27/03:00am 12.2 10.8 9.6 84 1.3 N 7 11 4 6 1018.9 1018.9 0.2
27/02:30am 12.4 10.5 9.2 81 1.6 NW 9 13 5 7 1019.2 1019.2 0.2
27/02:00am 12.9 9.2 9.4 79 1.8 N 19 30 10 16 1018.9 1018.9 0.2
27/01:30am 12.9 9.6 9.4 79 1.8 N 17 26 9 14 1019.0 1019.0 0.2
27/01:00am 13.1 9.7 9.2 77 2.0 N 17 26 9 14 1019.3 1019.3 0.2
27/12:30am 12.5 9.6 9.5 82 1.5 N 15 22 8 12 1019.8 1019.8 0.2
27/12:00am 12.8 10.2 9.3 79 1.8 N 13 17 7 9 1020.2 1020.2 0.0
 
Date/Time
EST
Temp
°C
App
Temp
°C
Dew
Point
Rel
Hum
%
Delta-T
°C
Wind Press
QNH
hPa
Press
MSL
hPa
Rain
since 9 am
mm
Dir
 
Spd
km/h
Gust
km/h
Spd
kts
Gust
kts
26/11:30pm 12.9 10.3 9.4 79 1.8 N 13 19 7 10 1020.5 1020.5 0.0
26/11:00pm 12.6 10.0 9.2 80 1.7 N 13 20 7 11 1020.6 1020.6 0.0
26/10:30pm 12.3 10.0 9.1 81 1.6 NNE 11 19 6 10 1020.9 1020.9 0.0
26/10:00pm 12.1 10.2 8.9 81 1.6 NNE 9 13 5 7 1021.4 1021.4 0.0
26/09:30pm 12.0 9.8 9.2 83 1.4 NNE 11 17 6 9 1021.4 1021.4 0.0
26/09:00pm 11.7 9.1 9.3 85 1.2 NNE 13 20 7 11 1021.6 1021.6 0.0
26/08:30pm 11.6 10.1 9.3 86 1.2 NNE 7 9 4 5 1021.8 1021.8 0.0
26/08:00pm 11.6 10.1 9.3 86 1.1 NE 7 11 4 6 1022.1 1022.1 0.0
26/07:30pm 12.3 10.2 9.7 84 1.3 NE 11 17 6 9 1022.2 1022.2 0.0
26/07:00pm 12.6 10.9 9.8 83 1.4 ENE 9 15 5 8 1022.4 1022.4 0.0
26/06:30pm 13.1 11.8 10.1 82 1.5 ENE 7 15 4 8 1022.5 1022.5 0.0
26/06:00pm 13.4 12.1 9.8 79 1.8 ENE 7 13 4 7 1022.5 1022.5 0.0
26/05:30pm 13.6 12.3 9.8 78 2.0 ENE 7 11 4 6 1022.6 1022.6 0.0
26/05:00pm 13.8 12.3 9.0 73 2.4 ENE 7 13 4 7 1022.8 1022.8 0.0
26/04:30pm 14.6 13.0 7.9 64 3.3 NE 6 9 3 5 1023.0 1023.0 0.0
26/04:00pm 15.5 13.5 8.7 64 3.4 NE 9 13 5 7 1023.2 1023.2 0.0
26/03:30pm 15.9 14.4 9.1 64 3.5 ENE 7 13 4 7 1023.2 1023.2 0.0
26/03:00pm 16.2 14.6 8.9 62 3.7 E 7 9 4 5 1023.5 1023.5 0.0
26/02:30pm 16.4 14.9 9.1 62 3.8 NE 7 11 4 6 1023.8 1023.8 0.0
26/02:00pm 15.3 13.9 9.0 66 3.2 E 6 9 3 5 1024.4 1024.4 0.0
26/01:30pm 15.3 14.1 9.4 68 3.0 ENE 6 11 3 6 1024.8 1024.8 0.0
26/01:00pm 14.8 13.5 9.2 69 2.9 ENE 6 9 3 5 1025.4 1025.4 0.0
26/12:30pm 13.7 12.4 9.2 74 2.3 NE 6 9 3 5 1025.8 1025.8 0.0
26/12:00pm 13.3 12.0 9.2 76 2.1 NE 6 9 3 5 1026.5 1026.5 0.0
26/11:30am 12.7 11.1 8.6 76 2.0 NNE 7 9 4 5 1027.3 1027.3 0.0
26/11:00am 12.7 10.7 8.8 77 1.9 N 9 13 5 7 1027.8 1027.8 0.0
26/10:30am 11.0 8.9 8.2 83 1.4 NNE 9 15 5 8 1027.9 1027.9 0.0
26/10:00am 9.2 7.2 7.3 88 0.9 NNE 7 11 4 6 1028.1 1028.1 0.0
26/09:30am 8.4 6.0 7.0 91 0.7 NNE 9 11 5 6 1028.0 1028.0 0.0
26/09:00am 6.8 4.6 5.3 90 0.7 NNE 6 7 3 4 1028.2 1028.2 0.0
26/08:30am 6.5 4.0 5.0 90 0.7 NNE 7 9 4 5 1028.3 1028.3 0.0
26/08:00am 6.3 3.5 5.1 92 0.5 N 9 11 5 6 1028.3 1028.3 0.0
26/07:30am 5.7 3.4 4.8 94 0.4 NNE 6 7 3 4 1028.1 1028.1 0.0
26/07:00am 5.5 3.0 4.6 94 0.4 NNE 7 9 4 5 1028.0 1028.0 0.0
26/06:30am 5.2 2.8 4.2 93 0.4 NNE 6 7 3 4 1027.9 1027.9 0.0
26/06:00am 5.3 2.7 4.3 93 0.4 N 7 9 4 5 1027.8 1027.8 0.0
26/05:30am 5.2 2.8 4.2 93 0.4 NNE 6 7 3 4 1027.9 1027.9 0.0
26/05:00am 5.1 2.1 4.1 93 0.4 NNE 9 11 5 6 1027.9 1027.9 0.0
26/04:30am 5.1 2.1 3.9 92 0.5 NNE 9 11 5 6 1028.0 1028.0 0.0
26/04:00am 5.4 2.4 4.2 92 0.5 NNE 9 13 5 7 1028.0 1028.0 0.0
26/03:30am 5.3 2.7 4.3 93 0.4 N 7 11 4 6 1028.2 1028.2 0.0
26/03:00am 5.3 2.9 4.1 92 0.5 N 6 7 3 4 1028.3 1028.3 0.0
26/02:30am 5.5 3.1 4.3 92 0.5 NNW 6 9 3 5 1028.6 1028.6 0.0
26/02:00am 5.8 3.3 4.6 92 0.5 NNW 7 11 4 6 1028.7 1028.7 0.0
26/01:30am 6.3 3.5 5.3 93 0.4 N 9 11 5 6 1028.5 1028.5 0.0
26/01:00am 6.6 3.9 5.6 93 0.4 N 9 11 5 6 1028.5 1028.5 0.0
26/12:30am 7.0 4.4 6.1 94 0.4 N 9 13 5 7 1028.8 1028.8 0.0
26/12:00am 6.5 4.2 5.5 93 0.4 N 7 9 4 5 1028.9 1028.9 0.0
 
Date/Time
EST
Temp
°C
App
Temp
°C
Dew
Point
Rel
Hum
%
Delta-T
°C
Wind Press
QNH
hPa
Press
MSL
hPa
Rain
since 9 am
mm
Dir
 
Spd
km/h
Gust
km/h
Spd
kts
Gust
kts
25/11:30pm 7.1 5.0 6.0 93 0.5 N 6 6 3 3 1028.8 1028.8 0.0
25/11:00pm 7.4 5.4 6.3 93 0.5 N 6 7 3 4 1028.9 1028.9 0.0
25/10:30pm 7.6 5.7 6.5 93 0.5 NNE 6 7 3 4 1029.1 1029.1 0.0
25/10:00pm 7.6 5.6 6.4 92 0.5 ESE 6 7 3 4 1029.3 1029.3 0.0
25/09:30pm 8.2 6.8 7.1 93 0.5 N 4 6 2 3 1029.5 1029.5 0.0
25/09:00pm 8.6 7.2 7.4 92 0.6 NNE 4 6 2 3 1029.4 1029.4 0.0
25/08:30pm 9.5 8.4 8.3 92 0.6 NNE 4 4 2 2 1029.2 1029.2 0.0
25/08:00pm 10.2 9.2 9.0 92 0.6 NNE 4 6 2 3 1029.3 1029.3 0.0
25/07:30pm 10.8 9.9 9.1 89 0.8 NE 4 6 2 3 1029.1 1029.1 0.0
25/07:00pm 12.1 11.4 10.2 88 1.0 ENE 4 6 2 3 1029.0 1029.0 0.0
25/06:30pm 12.6 11.9 10.1 85 1.3 E 4 6 2 3 1028.8 1028.8 0.0
25/06:00pm 11.5 10.8 8.5 82 1.5 SE 2 4 1 2 1028.5 1028.5 0.0
25/05:30pm 12.5 11.5 8.8 78 1.8 ESE 4 4 2 2 1028.3 1028.3 0.0
25/05:00pm 13.9 12.7 9.5 75 2.2 SE 6 6 3 3 1028.0 1028.0 0.0
25/04:30pm 14.7 13.9 9.5 71 2.7 SE 4 6 2 3 1028.1 1028.1 0.0
25/04:00pm 14.9 14.1 9.7 71 2.7 SE 4 6 2 3 1028.0 1028.0 0.0
25/03:30pm 15.0 13.9 10.0 72 2.6 SSE 6 6 3 3 1027.9 1027.9 0.0
25/03:00pm 15.3 14.3 10.3 72 2.6 SSE 6 6 3 3 1028.0 1028.0 0.0
25/02:30pm 14.9 13.8 9.9 72 2.6 SSE 6 7 3 4 1028.0 1028.0 0.0

Other Formats:

Comma delimited format used in spreadsheet applications
http://www.bom.gov.au/fwo/IDV60801/IDV60801.94830.axf

JavaScript Object Notation format (JSON) in row-major order
http://www.bom.gov.au/fwo/IDV60801/IDV60801.94830.json